Time;durP1;ratioP1;P1;durP2;ratioP2;P2;SDS_P1;SDS_P2;PMS_P1;PMS_P2;Temp;Humidity;BMP_temperature;BMP_pressure;BME280_temperature;BME280_humidity;BME280_pressure;Samples;Min_cycle;Max_cycle;Signal;HPM_P1;HPM_P2
2023/11/26 00:01:57;;;;;;;6.40;2.47;;;;;;;;;;5086711;27;20142;-62
2023/11/26 00:04:23;;;;;;;13.77;5.10;;;;;;;;;;5059480;28;20546;-60
2023/11/26 00:06:51;;;;;;;14.55;5.18;;;;;;;;;;5065598;28;20092;-62
2023/11/26 00:09:17;;;;;;;13.77;5.88;;;;;;;;;;5065058;28;20059;-61
2023/11/26 00:11:45;;;;;;;12.77;4.30;;;;;;;;;;5062156;28;20088;-61
2023/11/26 00:14:11;;;;;;;11.82;4.65;;;;;;;;;;5067388;28;20075;-61
2023/11/26 00:16:38;;;;;;;17.83;5.28;;;;;;;;;;5064354;28;20135;-61
2023/11/26 00:19:07;;;;;;;15.63;4.78;;;;;;;;;;5076889;28;20106;-61
2023/11/26 00:21:33;;;;;;;12.10;4.75;;;;;;;;;;5057541;28;20081;-62
2023/11/26 00:24:01;;;;;;;13.73;4.70;;;;;;;;;;5064910;28;20131;-62
2023/11/26 00:26:31;;;;;;;13.45;5.60;;;;;;;;;;5088697;28;20052;-62
2023/11/26 00:28:58;;;;;;;18.88;4.95;;;;;;;;;;5067471;28;20053;-61
2023/11/26 00:31:25;;;;;;;13.50;4.95;;;;;;;;;;5058035;28;20052;-62
2023/11/26 00:33:52;;;;;;;11.25;4.43;;;;;;;;;;5062397;28;20053;-62
2023/11/26 00:36:21;;;;;;;14.18;5.78;;;;;;;;;;5063253;28;20117;-61
2023/11/26 00:38:48;;;;;;;13.73;5.28;;;;;;;;;;5070302;28;20053;-64
2023/11/26 00:41:15;;;;;;;13.80;4.88;;;;;;;;;;5066932;28;20080;-62
2023/11/26 00:43:43;;;;;;;9.97;4.30;;;;;;;;;;5068568;28;20494;-61
2023/11/26 00:46:09;;;;;;;14.00;5.00;;;;;;;;;;5061196;28;20085;-61
2023/11/26 00:48:37;;;;;;;9.02;3.88;;;;;;;;;;5072511;28;20054;-62
2023/11/26 00:51:04;;;;;;;11.07;4.43;;;;;;;;;;5072474;28;20056;-62
2023/11/26 00:53:32;;;;;;;39.92;15.00;;;;;;;;;;5069571;28;20051;-62
2023/11/26 00:56:00;;;;;;;30.98;13.85;;;;;;;;;;5068796;28;20063;-63
2023/11/26 00:58:27;;;;;;;35.92;16.35;;;;;;;;;;5070310;28;20060;-63
2023/11/26 01:00:54;;;;;;;18.70;7.43;;;;;;;;;;5064218;28;20109;-65
2023/11/26 01:03:21;;;;;;;14.85;5.50;;;;;;;;;;5084245;28;20132;-62
2023/11/26 01:05:48;;;;;;;12.15;4.72;;;;;;;;;;5073209;28;20052;-62
2023/11/26 01:08:15;;;;;;;13.20;4.13;;;;;;;;;;5063409;28;20334;-62
2023/11/26 01:10:43;;;;;;;16.63;4.50;;;;;;;;;;5070631;28;20067;-62
2023/11/26 01:13:10;;;;;;;10.95;4.15;;;;;;;;;;5045452;28;20064;-62
2023/11/26 01:15:37;;;;;;;8.85;3.70;;;;;;;;;;5057285;28;20040;-62
2023/11/26 01:18:04;;;;;;;10.60;4.22;;;;;;;;;;5045717;28;20105;-63
2023/11/26 01:20:31;;;;;;;10.68;4.13;;;;;;;;;;5052404;28;20253;-62
2023/11/26 01:22:57;;;;;;;10.57;4.28;;;;;;;;;;5053609;28;20084;-63
2023/11/26 01:25:24;;;;;;;9.95;4.22;;;;;;;;;;5055452;28;20104;-62
2023/11/26 01:27:52;;;;;;;8.38;3.78;;;;;;;;;;5055675;28;20110;-63
2023/11/26 01:30:19;;;;;;;10.23;3.75;;;;;;;;;;5047923;28;20067;-62
2023/11/26 01:32:45;;;;;;;8.60;3.70;;;;;;;;;;5057407;28;20052;-62
2023/11/26 01:35:12;;;;;;;13.35;4.20;;;;;;;;;;5068337;28;20056;-62
2023/11/26 01:37:39;;;;;;;9.60;3.88;;;;;;;;;;5060666;28;20063;-62
2023/11/26 01:40:10;;;;;;;12.07;4.50;;;;;;;;;;5038274;28;20049;-63
2023/11/26 01:42:36;;;;;;;13.13;4.10;;;;;;;;;;5039444;28;20128;-62
2023/11/26 01:45:05;;;;;;;12.45;4.70;;;;;;;;;;5059989;28;20135;-62
2023/11/26 01:47:32;;;;;;;9.50;4.35;;;;;;;;;;5061152;28;20065;-63
2023/11/26 01:49:59;;;;;;;13.75;4.45;;;;;;;;;;5061463;28;20048;-62
2023/11/26 01:52:26;;;;;;;10.68;4.45;;;;;;;;;;5044604;28;21255;-62
2023/11/26 01:54:53;;;;;;;11.73;4.22;;;;;;;;;;5046305;28;20052;-62
2023/11/26 01:57:21;;;;;;;11.27;4.88;;;;;;;;;;5063227;28;20056;-62
2023/11/26 01:59:47;;;;;;;9.25;4.07;;;;;;;;;;5060014;28;20060;-62
2023/11/26 02:02:16;;;;;;;12.93;4.85;;;;;;;;;;5040877;28;20589;-62
2023/11/26 02:04:43;;;;;;;9.48;4.07;;;;;;;;;;5054559;28;20056;-62
2023/11/26 02:07:10;;;;;;;10.35;4.68;;;;;;;;;;5059142;28;20055;-63
2023/11/26 02:09:38;;;;;;;9.00;4.07;;;;;;;;;;5047951;28;20074;-62
2023/11/26 02:12:08;;;;;;;11.90;4.15;;;;;;;;;;5063153;28;20049;-62
2023/11/26 02:14:35;;;;;;;12.98;4.03;;;;;;;;;;5062939;28;20084;-61
2023/11/26 02:17:02;;;;;;;8.43;3.53;;;;;;;;;;5057257;28;20144;-64
2023/11/26 02:19:34;;;;;;;8.55;3.38;;;;;;;;;;5058715;28;20063;-63
2023/11/26 02:22:01;;;;;;;10.15;3.65;;;;;;;;;;5055706;28;20052;-63
2023/11/26 02:24:31;;;;;;;9.82;3.47;;;;;;;;;;5054005;28;20041;-62
2023/11/26 02:26:59;;;;;;;11.20;5.30;;;;;;;;;;5057554;28;20067;-62
2023/11/26 02:29:26;;;;;;;15.10;6.90;;;;;;;;;;5056455;28;20065;-62
2023/11/26 02:34:23;;;;;;;22.90;10.20;;;;;;;;;;5027318;28;20334;-62
2023/11/26 02:36:49;;;;;;;16.23;6.57;;;;;;;;;;5013893;28;20119;-62
2023/11/26 02:39:16;;;;;;;11.27;4.60;;;;;;;;;;5005333;28;20068;-61
2023/11/26 02:41:43;;;;;;;11.63;3.55;;;;;;;;;;5032391;28;20092;-61
2023/11/26 02:44:11;;;;;;;9.45;3.50;;;;;;;;;;5006458;28;20118;-61
2023/11/26 02:46:38;;;;;;;9.18;3.03;;;;;;;;;;5017965;28;20218;-63
2023/11/26 02:49:04;;;;;;;6.22;2.50;;;;;;;;;;5025475;28;20630;-63
2023/11/26 02:51:32;;;;;;;7.78;2.92;;;;;;;;;;5024790;28;20119;-63
2023/11/26 02:53:59;;;;;;;7.97;3.22;;;;;;;;;;5012980;28;20140;-61
2023/11/26 02:56:26;;;;;;;5.55;2.22;;;;;;;;;;4986768;28;20060;-60
2023/11/26 02:58:53;;;;;;;10.18;2.95;;;;;;;;;;5012583;28;20127;-63
2023/11/26 03:01:22;;;;;;;8.18;2.95;;;;;;;;;;4996480;28;20136;-63
2023/11/26 03:03:50;;;;;;;8.52;3.15;;;;;;;;;;4965246;28;20060;-63
2023/11/26 03:06:16;;;;;;;7.18;2.95;;;;;;;;;;5028922;28;20063;-63
2023/11/26 03:08:43;;;;;;;10.20;3.03;;;;;;;;;;5037973;28;20959;-62
2023/11/26 03:14:12;;;;;;;6.18;2.63;;;;;;;;;;4982055;28;20054;-60
2023/11/26 03:16:44;;;;;;;7.70;3.10;;;;;;;;;;4975221;28;20054;-61
2023/11/26 03:19:12;;;;;;;8.13;3.28;;;;;;;;;;5004397;28;20126;-61
2023/11/26 03:21:38;;;;;;;7.85;3.03;;;;;;;;;;5044978;28;20120;-61
2023/11/26 03:24:05;;;;;;;10.30;2.90;;;;;;;;;;5041766;28;20056;-60
2023/11/26 03:26:31;;;;;;;7.95;2.95;;;;;;;;;;5034420;28;20058;-61
2023/11/26 03:28:58;;;;;;;8.00;2.60;;;;;;;;;;5058974;28;20106;-61
2023/11/26 03:31:26;;;;;;;11.23;3.10;;;;;;;;;;5045236;28;20051;-61
2023/11/26 03:33:54;;;;;;;8.43;2.90;;;;;;;;;;5035247;28;20085;-61
2023/11/26 03:36:21;;;;;;;6.25;2.70;;;;;;;;;;5037402;28;20143;-61
2023/11/26 03:38:48;;;;;;;10.80;2.70;;;;;;;;;;5041426;28;20052;-61
2023/11/26 03:41:14;;;;;;;7.55;2.53;;;;;;;;;;5024761;28;20053;-61
2023/11/26 03:43:41;;;;;;;7.20;2.42;;;;;;;;;;5018386;28;20084;-61
2023/11/26 03:46:08;;;;;;;5.55;2.38;;;;;;;;;;5037579;28;20077;-61
2023/11/26 03:48:34;;;;;;;4.95;2.22;;;;;;;;;;5023709;28;20130;-62
2023/11/26 03:51:02;;;;;;;5.15;2.47;;;;;;;;;;5045232;28;20068;-61
2023/11/26 03:53:29;;;;;;;6.00;1.90;;;;;;;;;;5035485;28;20080;-63
2023/11/26 03:55:56;;;;;;;5.65;2.20;;;;;;;;;;5031565;28;20057;-61
2023/11/26 03:58:22;;;;;;;7.15;2.40;;;;;;;;;;5019685;28;20065;-63
2023/11/26 04:00:50;;;;;;;5.38;2.45;;;;;;;;;;5044848;28;20052;-63
2023/11/26 04:03:16;;;;;;;7.10;2.00;;;;;;;;;;5035496;28;20068;-63
2023/11/26 04:05:43;;;;;;;7.30;2.53;;;;;;;;;;5017933;28;20059;-61
2023/11/26 04:08:11;;;;;;;7.35;2.70;;;;;;;;;;5038134;28;20100;-63
2023/11/26 04:10:38;;;;;;;5.78;2.65;;;;;;;;;;5029192;28;20049;-63
2023/11/26 04:13:05;;;;;;;8.48;2.45;;;;;;;;;;5040614;28;20141;-63
2023/11/26 04:15:31;;;;;;;5.53;2.15;;;;;;;;;;5031187;28;20057;-63
2023/11/26 04:17:58;;;;;;;3.63;1.80;;;;;;;;;;5030276;28;20060;-63
2023/11/26 04:20:26;;;;;;;7.22;2.15;;;;;;;;;;5042927;28;20056;-63
2023/11/26 04:22:53;;;;;;;5.03;2.22;;;;;;;;;;5052007;28;20068;-63
2023/11/26 04:25:21;;;;;;;6.18;2.35;;;;;;;;;;5045226;28;20087;-61
2023/11/26 04:27:48;;;;;;;6.45;2.13;;;;;;;;;;5037656;28;20069;-61
2023/11/26 04:30:14;;;;;;;5.45;1.98;;;;;;;;;;5028959;28;20053;-61
2023/11/26 04:32:41;;;;;;;5.53;2.40;;;;;;;;;;5042224;28;20107;-61
2023/11/26 04:35:09;;;;;;;6.07;1.98;;;;;;;;;;5024996;28;20076;-61
2023/11/26 04:37:36;;;;;;;4.82;1.83;;;;;;;;;;5033526;28;20061;-63
2023/11/26 04:40:05;;;;;;;5.43;1.98;;;;;;;;;;5041822;28;20076;-63
2023/11/26 04:42:36;;;;;;;4.60;1.70;;;;;;;;;;5029851;28;20053;-63
2023/11/26 04:45:03;;;;;;;9.05;2.40;;;;;;;;;;5032173;28;20057;-61
2023/11/26 04:47:29;;;;;;;7.38;1.75;;;;;;;;;;5028759;28;20140;-61
2023/11/26 04:49:58;;;;;;;4.82;1.20;;;;;;;;;;5044140;28;20135;-63
2023/11/26 04:52:25;;;;;;;5.13;1.27;;;;;;;;;;5028657;28;20182;-64
2023/11/26 04:54:51;;;;;;;6.28;1.27;;;;;;;;;;5027468;28;20056;-63
2023/11/26 04:57:18;;;;;;;3.50;1.13;;;;;;;;;;5044420;28;20106;-63
2023/11/26 04:59:46;;;;;;;3.42;1.08;;;;;;;;;;5041410;28;20053;-60
2023/11/26 05:02:14;;;;;;;2.92;1.05;;;;;;;;;;5033613;28;20041;-61
2023/11/26 05:04:44;;;;;;;4.90;0.98;;;;;;;;;;5039597;28;20066;-60
2023/11/26 05:07:10;;;;;;;5.00;1.20;;;;;;;;;;5037725;28;20057;-61
2023/11/26 05:09:37;;;;;;;4.50;0.98;;;;;;;;;;5038340;28;20053;-63
2023/11/26 05:12:05;;;;;;;4.38;1.38;;;;;;;;;;5046309;28;20057;-61
2023/11/26 05:14:31;;;;;;;3.60;1.00;;;;;;;;;;5035064;28;20059;-61
2023/11/26 05:16:59;;;;;;;3.17;0.90;;;;;;;;;;5034016;28;20061;-63
2023/11/26 05:19:26;;;;;;;5.50;1.08;;;;;;;;;;5039891;28;20049;-63
2023/11/26 05:21:53;;;;;;;7.57;1.10;;;;;;;;;;5046592;28;20128;-62
2023/11/26 05:24:20;;;;;;;6.30;1.00;;;;;;;;;;5035944;28;20053;-61
2023/11/26 05:26:48;;;;;;;2.45;0.90;;;;;;;;;;5047300;28;20175;-61
2023/11/26 05:29:14;;;;;;;2.17;0.88;;;;;;;;;;5025904;28;20137;-61
2023/11/26 05:31:41;;;;;;;5.30;1.50;;;;;;;;;;5035022;28;20049;-61
2023/11/26 05:34:09;;;;;;;3.92;1.08;;;;;;;;;;5040156;28;20061;-61
2023/11/26 05:36:36;;;;;;;2.75;0.93;;;;;;;;;;5032398;28;20292;-61
2023/11/26 05:39:03;;;;;;;3.92;1.00;;;;;;;;;;5034394;28;20080;-61
2023/11/26 05:41:29;;;;;;;2.42;0.90;;;;;;;;;;5049046;28;20125;-62
2023/11/26 05:43:56;;;;;;;4.20;1.20;;;;;;;;;;5034976;28;20060;-61
2023/11/26 05:46:23;;;;;;;3.20;1.00;;;;;;;;;;5029508;28;20057;-61
2023/11/26 05:48:50;;;;;;;5.43;1.20;;;;;;;;;;5030893;28;20087;-61
2023/11/26 05:51:22;;;;;;;2.20;0.98;;;;;;;;;;5031769;28;20092;-61
2023/11/26 05:53:48;;;;;;;6.93;1.10;;;;;;;;;;5025396;28;20045;-61
2023/11/26 05:56:15;;;;;;;3.58;0.88;;;;;;;;;;5041732;28;20060;-61
2023/11/26 05:58:42;;;;;;;2.05;0.90;;;;;;;;;;5029025;28;20057;-62
2023/11/26 06:01:09;;;;;;;4.90;1.05;;;;;;;;;;5029432;28;20052;-61
2023/11/26 06:03:36;;;;;;;1.20;0.65;;;;;;;;;;5034624;28;20057;-61
2023/11/26 06:06:03;;;;;;;2.83;0.75;;;;;;;;;;5037466;28;20053;-62
2023/11/26 06:08:31;;;;;;;1.77;0.70;;;;;;;;;;5034568;28;20059;-62
2023/11/26 06:10:58;;;;;;;2.10;0.95;;;;;;;;;;5035443;28;20136;-61
2023/11/26 06:13:24;;;;;;;2.63;0.98;;;;;;;;;;5039197;28;20057;-62
2023/11/26 06:15:51;;;;;;;2.97;0.90;;;;;;;;;;5032317;28;20132;-61
2023/11/26 06:18:18;;;;;;;2.42;1.00;;;;;;;;;;5033171;28;20061;-61
2023/11/26 06:20:44;;;;;;;3.25;0.80;;;;;;;;;;5033441;28;20056;-60
2023/11/26 06:23:11;;;;;;;2.45;0.90;;;;;;;;;;5037056;28;20067;-61
2023/11/26 06:25:39;;;;;;;4.45;0.80;;;;;;;;;;5028187;28;20159;-61
2023/11/26 06:28:06;;;;;;;1.33;0.50;;;;;;;;;;5036865;28;20056;-64
2023/11/26 06:30:32;;;;;;;3.90;0.98;;;;;;;;;;5036632;28;20052;-63
2023/11/26 06:33:01;;;;;;;2.35;1.00;;;;;;;;;;5058935;28;20049;-63
2023/11/26 06:35:28;;;;;;;5.70;1.10;;;;;;;;;;5030270;28;20069;-63
2023/11/26 06:37:54;;;;;;;4.93;1.02;;;;;;;;;;5033634;28;20073;-63
2023/11/26 06:40:22;;;;;;;5.32;0.95;;;;;;;;;;5030019;28;20061;-62
2023/11/26 06:42:50;;;;;;;1.60;0.80;;;;;;;;;;5066955;28;20080;-61
2023/11/26 06:45:17;;;;;;;2.10;0.90;;;;;;;;;;5031352;28;20135;-61
2023/11/26 06:47:43;;;;;;;2.13;1.02;;;;;;;;;;5031450;28;20063;-61
2023/11/26 06:50:10;;;;;;;3.42;0.95;;;;;;;;;;5034749;28;20080;-61
2023/11/26 06:52:37;;;;;;;1.65;0.70;;;;;;;;;;5021419;28;20037;-61
2023/11/26 06:55:05;;;;;;;1.23;0.60;;;;;;;;;;5035112;28;20055;-61
2023/11/26 06:57:32;;;;;;;2.22;0.90;;;;;;;;;;5047024;28;20073;-61
2023/11/26 07:00:00;;;;;;;5.50;1.15;;;;;;;;;;5021149;28;20049;-61
2023/11/26 07:02:28;;;;;;;1.02;0.68;;;;;;;;;;5032357;28;20056;-62
2023/11/26 07:04:55;;;;;;;2.08;0.80;;;;;;;;;;5037795;28;20116;-61
2023/11/26 07:07:22;;;;;;;2.75;0.98;;;;;;;;;;5037980;28;20114;-61
2023/11/26 07:09:49;;;;;;;2.65;1.05;;;;;;;;;;5041521;28;20056;-61
2023/11/26 07:12:16;;;;;;;2.45;0.98;;;;;;;;;;5045183;28;20056;-61
2023/11/26 07:14:44;;;;;;;3.42;1.00;;;;;;;;;;5029212;28;20072;-61
2023/11/26 07:17:13;;;;;;;2.65;0.90;;;;;;;;;;5034614;28;20057;-61
2023/11/26 07:19:41;;;;;;;3.25;1.27;;;;;;;;;;5036348;28;20048;-61
2023/11/26 07:22:08;;;;;;;0.77;0.60;;;;;;;;;;5054673;28;20059;-61
2023/11/26 07:24:35;;;;;;;1.55;0.63;;;;;;;;;;5035031;28;20096;-61
2023/11/26 07:27:02;;;;;;;1.80;0.98;;;;;;;;;;5031447;28;20053;-61
2023/11/26 07:29:28;;;;;;;2.83;0.90;;;;;;;;;;5027474;28;20061;-62
2023/11/26 07:31:55;;;;;;;2.47;0.95;;;;;;;;;;5045065;28;20053;-62
2023/11/26 07:34:24;;;;;;;1.40;0.95;;;;;;;;;;5035493;28;20067;-62
2023/11/26 07:36:51;;;;;;;2.15;0.88;;;;;;;;;;5031473;28;20079;-61
2023/11/26 07:39:17;;;;;;;5.38;0.85;;;;;;;;;;5034964;28;20065;-61
2023/11/26 07:41:46;;;;;;;2.08;0.68;;;;;;;;;;5030258;28;20060;-61
2023/11/26 07:44:13;;;;;;;;;;;;;;;;;;5032253;28;20053;-61
2023/11/26 07:46:40;;;;;;;2.08;0.73;;;;;;;;;;5035648;28;20019;-61
2023/11/26 07:49:07;;;;;;;1.15;0.65;;;;;;;;;;5036867;28;20148;-61
2023/11/26 07:51:35;;;;;;;5.60;1.00;;;;;;;;;;5031833;28;20099;-62
2023/11/26 07:54:02;;;;;;;3.00;0.90;;;;;;;;;;5021239;28;20052;-61
2023/11/26 07:56:28;;;;;;;2.08;0.70;;;;;;;;;;5024396;28;20060;-62
2023/11/26 07:58:55;;;;;;;3.08;0.90;;;;;;;;;;5050186;28;20110;-60
2023/11/26 08:01:22;;;;;;;2.65;0.77;;;;;;;;;;5027272;28;20057;-61
2023/11/26 08:03:53;;;;;;;3.55;1.00;;;;;;;;;;5031258;28;20064;-61
2023/11/26 08:06:20;;;;;;;5.75;0.93;;;;;;;;;;5035149;28;20148;-61
2023/11/26 08:08:48;;;;;;;2.47;0.98;;;;;;;;;;5033944;28;20061;-60
2023/11/26 08:11:16;;;;;;;2.63;0.73;;;;;;;;;;5033822;28;20063;-61
2023/11/26 08:13:42;;;;;;;3.15;0.70;;;;;;;;;;5024664;28;20084;-60
2023/11/26 08:16:09;;;;;;;2.42;1.00;;;;;;;;;;5037654;28;20049;-60
2023/11/26 08:18:37;;;;;;;3.63;1.50;;;;;;;;;;5030056;28;20076;-61
2023/11/26 08:21:06;;;;;;;4.38;1.25;;;;;;;;;;5046279;28;20205;-60
2023/11/26 08:23:34;;;;;;;3.05;0.82;;;;;;;;;;5034671;28;20041;-60
2023/11/26 08:26:02;;;;;;;2.28;0.80;;;;;;;;;;5030499;28;20045;-60
2023/11/26 08:28:29;;;;;;;1.77;1.00;;;;;;;;;;5027622;28;20084;-63
2023/11/26 08:30:55;;;;;;;1.52;0.80;;;;;;;;;;5042752;28;20129;-63
2023/11/26 08:33:24;;;;;;;1.52;0.90;;;;;;;;;;5040847;28;20053;-62
2023/11/26 08:35:57;;;;;;;2.60;0.82;;;;;;;;;;5039042;28;20056;-64
2023/11/26 08:38:28;;;;;;;1.15;0.75;;;;;;;;;;5030706;28;20115;-61
2023/11/26 08:40:55;;;;;;;4.10;0.98;;;;;;;;;;5053014;28;20083;-61
2023/11/26 08:43:23;;;;;;;2.80;1.20;;;;;;;;;;5039055;28;21079;-61
2023/11/26 08:45:51;;;;;;;6.13;1.25;;;;;;;;;;5039630;28;20048;-61
2023/11/26 08:48:17;;;;;;;4.32;0.90;;;;;;;;;;5036376;28;20060;-61
2023/11/26 08:50:44;;;;;;;1.08;0.80;;;;;;;;;;5042827;28;21319;-61
2023/11/26 08:53:12;;;;;;;2.55;1.00;;;;;;;;;;5033942;28;20136;-61
2023/11/26 08:55:39;;;;;;;2.70;0.82;;;;;;;;;;5029942;28;20060;-60
2023/11/26 08:58:08;;;;;;;4.78;0.98;;;;;;;;;;5054581;28;20051;-61
2023/11/26 09:00:38;;;;;;;2.30;0.90;;;;;;;;;;5025567;28;20273;-61
2023/11/26 09:03:06;;;;;;;3.88;1.27;;;;;;;;;;5030619;28;20148;-61
2023/11/26 09:05:32;;;;;;;3.28;1.23;;;;;;;;;;5029942;28;20049;-61
2023/11/26 09:07:59;;;;;;;17.60;6.32;;;;;;;;;;5044121;28;20076;-60
2023/11/26 09:10:26;;;;;;;8.05;1.67;;;;;;;;;;5036791;28;20064;-60
2023/11/26 09:12:52;;;;;;;4.55;0.88;;;;;;;;;;5037453;28;20064;-61
2023/11/26 09:15:20;;;;;;;2.60;0.82;;;;;;;;;;5029187;28;20049;-61
2023/11/26 09:17:49;;;;;;;1.23;0.80;;;;;;;;;;5036780;28;20052;-61
2023/11/26 09:20:21;;;;;;;2.25;0.95;;;;;;;;;;5042107;28;20049;-62
2023/11/26 09:22:48;;;;;;;3.63;0.80;;;;;;;;;;5034981;28;20080;-61
2023/11/26 09:25:15;;;;;;;2.42;0.82;;;;;;;;;;5018726;28;20048;-62
2023/11/26 09:27:42;;;;;;;2.10;0.80;;;;;;;;;;5031507;28;20053;-61
2023/11/26 09:30:10;;;;;;;4.28;1.05;;;;;;;;;;5054378;28;20151;-62
2023/11/26 09:32:37;;;;;;;3.60;0.98;;;;;;;;;;5032387;28;20053;-62
2023/11/26 09:35:07;;;;;;;1.55;0.85;;;;;;;;;;5020439;28;20052;-63
2023/11/26 09:37:34;;;;;;;4.00;0.82;;;;;;;;;;5030321;28;20146;-63
2023/11/26 09:40:01;;;;;;;3.22;1.00;;;;;;;;;;5036635;28;20139;-61
2023/11/26 09:42:27;;;;;;;1.33;0.70;;;;;;;;;;5023664;28;20107;-61
2023/11/26 09:44:54;;;;;;;10.93;3.40;;;;;;;;;;5037556;28;20060;-61
2023/11/26 09:47:21;;;;;;;20.20;6.10;;;;;;;;;;5037145;28;20080;-61
2023/11/26 09:49:49;;;;;;;4.65;1.80;;;;;;;;;;5032779;28;20061;-61
2023/11/26 09:52:22;;;;;;;3.97;1.05;;;;;;;;;;5031908;28;20060;-61
2023/11/26 09:54:50;;;;;;;5.90;1.10;;;;;;;;;;5032315;28;20064;-61
2023/11/26 09:57:17;;;;;;;4.23;1.07;;;;;;;;;;5062936;28;20079;-61
2023/11/26 09:59:43;;;;;;;4.03;1.25;;;;;;;;;;5026083;28;20061;-61
2023/11/26 10:02:10;;;;;;;4.13;1.27;;;;;;;;;;5035341;28;20053;-62
2023/11/26 10:04:47;;;;;;;3.70;1.05;;;;;;;;;;5020627;28;20077;-62
2023/11/26 10:07:14;;;;;;;8.30;1.42;;;;;;;;;;5036946;28;20059;-61
2023/11/26 10:09:42;;;;;;;3.10;1.13;;;;;;;;;;5058777;28;20048;-61
2023/11/26 10:12:09;;;;;;;3.00;1.23;;;;;;;;;;5035858;28;20053;-62
2023/11/26 10:14:36;;;;;;;3.90;0.90;;;;;;;;;;5018521;28;20051;-63
2023/11/26 10:17:10;;;;;;;5.22;1.17;;;;;;;;;;5036046;28;20110;-62
2023/11/26 10:19:37;;;;;;;3.08;1.10;;;;;;;;;;5032071;28;20159;-62
2023/11/26 10:22:04;;;;;;;9.25;2.58;;;;;;;;;;5030309;28;20170;-62
2023/11/26 10:24:32;;;;;;;7.15;2.08;;;;;;;;;;5025962;28;20116;-62
2023/11/26 10:27:00;;;;;;;5.97;0.95;;;;;;;;;;5031377;28;20045;-61
2023/11/26 10:29:30;;;;;;;4.88;1.20;;;;;;;;;;5027467;28;20084;-62
2023/11/26 10:32:05;;;;;;;4.95;1.50;;;;;;;;;;5031919;28;20130;-61
2023/11/26 10:34:36;;;;;;;4.00;1.20;;;;;;;;;;5020906;28;20057;-64
2023/11/26 10:37:20;;;;;;;3.85;1.38;;;;;;;;;;5017965;28;20087;-62
2023/11/26 10:39:51;;;;;;;2.45;0.77;;;;;;;;;;5017620;28;20061;-62
2023/11/26 10:42:20;;;;;;;6.18;1.30;;;;;;;;;;5016881;28;20161;-63
2023/11/26 10:44:51;;;;;;;4.45;1.23;;;;;;;;;;5020360;28;20168;-63
2023/11/26 10:47:21;;;;;;;2.40;0.90;;;;;;;;;;5015688;28;20083;-63
2023/11/26 10:49:54;;;;;;;9.25;1.33;;;;;;;;;;5015507;28;20045;-63
2023/11/26 10:52:32;;;;;;;2.90;1.10;;;;;;;;;;5014992;28;20059;-63
2023/11/26 10:55:08;;;;;;;2.20;0.90;;;;;;;;;;4999852;28;20147;-63
2023/11/26 10:57:41;;;;;;;4.97;1.00;;;;;;;;;;5019509;28;20091;-62
2023/11/26 11:00:12;;;;;;;2.45;0.88;;;;;;;;;;5014631;28;20053;-62
2023/11/26 11:02:44;;;;;;;3.00;1.30;;;;;;;;;;5012159;28;20069;-64
2023/11/26 11:05:20;;;;;;;1.98;0.90;;;;;;;;;;5014665;28;20056;-62
2023/11/26 11:07:48;;;;;;;1.48;0.80;;;;;;;;;;5021770;28;20049;-61
2023/11/26 11:10:22;;;;;;;4.65;1.10;;;;;;;;;;5020564;28;20068;-62
2023/11/26 11:12:57;;;;;;;5.57;2.03;;;;;;;;;;5021572;28;20057;-62
2023/11/26 11:15:27;;;;;;;5.25;1.95;;;;;;;;;;5011854;28;20067;-62
2023/11/26 11:17:54;;;;;;;1.55;1.20;;;;;;;;;;5019035;28;20073;-62
2023/11/26 11:20:23;;;;;;;4.45;1.08;;;;;;;;;;5015638;28;20061;-63
2023/11/26 11:22:50;;;;;;;2.25;0.93;;;;;;;;;;5021173;28;20059;-63
2023/11/26 11:25:18;;;;;;;1.55;0.80;;;;;;;;;;5025945;28;20072;-63
2023/11/26 11:27:51;;;;;;;4.15;1.02;;;;;;;;;;5015975;28;20232;-63
2023/11/26 11:30:56;;;;;;;8.32;1.17;;;;;;;;;;5029703;28;20050;-62
2023/11/26 11:33:23;;;;;;;3.28;0.90;;;;;;;;;;5044337;28;20055;-63
2023/11/26 11:35:50;;;;;;;3.53;1.00;;;;;;;;;;5051340;28;20052;-63
2023/11/26 11:38:17;;;;;;;5.10;0.95;;;;;;;;;;5042134;28;20056;-60
2023/11/26 11:41:11;;;;;;;2.58;1.10;;;;;;;;;;5039669;28;20134;-63
2023/11/26 11:43:39;;;;;;;3.92;1.02;;;;;;;;;;5039138;28;20108;-65
2023/11/26 11:46:43;;;;;;;4.13;1.30;;;;;;;;;;5047931;28;20061;-62
2023/11/26 11:49:11;;;;;;;2.42;0.88;;;;;;;;;;5036201;28;20088;-62
2023/11/26 11:51:40;;;;;;;3.42;1.63;;;;;;;;;;5040245;28;20151;-61
2023/11/26 11:55:01;;;;;;;5.63;1.38;;;;;;;;;;5042442;28;20080;-64
2023/11/26 11:57:29;;;;;;;1.98;1.00;;;;;;;;;;4990236;28;20052;-62
2023/11/26 11:59:57;;;;;;;2.33;1.03;;;;;;;;;;5041093;28;20048;-61
2023/11/26 12:02:25;;;;;;;1.35;0.70;;;;;;;;;;5056226;28;20303;-62
2023/11/26 12:04:53;;;;;;;2.33;0.98;;;;;;;;;;5032068;28;20114;-62
2023/11/26 12:07:22;;;;;;;1.23;0.80;;;;;;;;;;5043493;28;20115;-62
2023/11/26 12:09:48;;;;;;;3.00;1.00;;;;;;;;;;5039244;28;20056;-62
2023/11/26 12:12:19;;;;;;;1.63;0.88;;;;;;;;;;5058639;28;20057;-63
2023/11/26 12:14:47;;;;;;;6.72;1.60;;;;;;;;;;5047988;28;20060;-62
2023/11/26 12:17:15;;;;;;;2.28;1.05;;;;;;;;;;5044285;28;20110;-62
2023/11/26 12:19:43;;;;;;;5.47;1.17;;;;;;;;;;5042048;28;20048;-62
2023/11/26 12:22:13;;;;;;;6.18;1.40;;;;;;;;;;5057188;28;20051;-62
2023/11/26 12:24:40;;;;;;;5.10;1.70;;;;;;;;;;5034003;28;20060;-62
2023/11/26 12:27:22;;;;;;;10.55;2.97;;;;;;;;;;5040007;28;20048;-62
2023/11/26 12:29:54;;;;;;;6.65;2.20;;;;;;;;;;5041230;28;20048;-63
2023/11/26 12:32:28;;;;;;;8.02;2.47;;;;;;;;;;5053926;28;20123;-62
2023/11/26 12:35:01;;;;;;;6.10;2.45;;;;;;;;;;5021978;28;20052;-62
2023/11/26 12:37:30;;;;;;;6.22;1.90;;;;;;;;;;5038945;28;20045;-63
2023/11/26 12:39:57;;;;;;;8.45;1.88;;;;;;;;;;5039132;28;20056;-62
2023/11/26 12:42:26;;;;;;;3.58;1.30;;;;;;;;;;5034653;28;20052;-62
2023/11/26 12:44:55;;;;;;;4.05;1.65;;;;;;;;;;5008420;28;20063;-63
2023/11/26 12:47:22;;;;;;;15.15;2.00;;;;;;;;;;5047608;28;20055;-63
2023/11/26 12:50:02;;;;;;;12.52;4.13;;;;;;;;;;5040407;28;20060;-63
2023/11/26 12:52:34;;;;;;;8.30;2.05;;;;;;;;;;5033824;28;20044;-63
2023/11/26 12:55:04;;;;;;;6.28;1.67;;;;;;;;;;5029715;28;20147;-62
2023/11/26 12:57:37;;;;;;;7.32;1.75;;;;;;;;;;5036953;28;20049;-63
2023/11/26 13:00:06;;;;;;;4.35;1.30;;;;;;;;;;5053688;28;20060;-62
2023/11/26 13:02:35;;;;;;;5.68;1.60;;;;;;;;;;5030524;28;20050;-63
2023/11/26 13:05:04;;;;;;;2.05;1.15;;;;;;;;;;5035859;28;20056;-63
2023/11/26 13:07:39;;;;;;;9.38;2.53;;;;;;;;;;5040102;28;20074;-63
2023/11/26 13:10:08;;;;;;;6.07;1.50;;;;;;;;;;5043467;28;20052;-62
2023/11/26 13:12:43;;;;;;;10.38;3.78;;;;;;;;;;5051792;28;20269;-63
2023/11/26 13:15:10;;;;;;;6.95;2.40;;;;;;;;;;5034825;28;20056;-63
2023/11/26 13:17:36;;;;;;;9.30;3.28;;;;;;;;;;5036873;28;20157;-64
2023/11/26 13:20:06;;;;;;;7.88;1.63;;;;;;;;;;5040508;28;20087;-63
2023/11/26 13:22:35;;;;;;;5.28;1.20;;;;;;;;;;5045911;28;20203;-63
2023/11/26 13:25:06;;;;;;;5.05;1.35;;;;;;;;;;5057915;28;20048;-62
2023/11/26 13:27:33;;;;;;;4.55;1.20;;;;;;;;;;5043320;28;20110;-62
2023/11/26 13:30:00;;;;;;;19.30;4.78;;;;;;;;;;5038744;28;20065;-62
2023/11/26 13:32:26;;;;;;;6.68;2.28;;;;;;;;;;5037890;28;20061;-62
2023/11/26 13:34:55;;;;;;;3.45;1.15;;;;;;;;;;5034935;28;20053;-62
2023/11/26 13:37:21;;;;;;;2.92;0.93;;;;;;;;;;5028418;28;20057;-62
2023/11/26 13:39:48;;;;;;;2.75;0.98;;;;;;;;;;5035324;28;20049;-62
2023/11/26 13:42:17;;;;;;;3.28;0.90;;;;;;;;;;5040421;28;20061;-62
2023/11/26 13:44:44;;;;;;;4.05;0.90;;;;;;;;;;5038097;28;21678;-62
2023/11/26 13:47:12;;;;;;;3.63;1.10;;;;;;;;;;5035238;28;20045;-62
2023/11/26 13:49:39;;;;;;;3.65;1.10;;;;;;;;;;5028417;28;20123;-63
2023/11/26 13:52:09;;;;;;;1.40;0.80;;;;;;;;;;5042337;28;20052;-62
2023/11/26 13:54:35;;;;;;;;;;;;;;;;;;5016404;28;20076;-62
2023/11/26 13:57:02;;;;;;;9.98;3.00;;;;;;;;;;5038822;28;19972;-63
2023/11/26 13:59:31;;;;;;;4.93;1.60;;;;;;;;;;5032853;28;20069;-62
2023/11/26 14:01:58;;;;;;;2.92;0.90;;;;;;;;;;5031965;28;20053;-63
2023/11/26 14:04:24;;;;;;;9.05;1.30;;;;;;;;;;5049376;28;20072;-62
2023/11/26 14:06:51;;;;;;;2.08;1.05;;;;;;;;;;5040472;28;20088;-62
2023/11/26 14:09:19;;;;;;;2.83;1.33;;;;;;;;;;5061337;28;20049;-62
2023/11/26 14:11:46;;;;;;;4.60;1.40;;;;;;;;;;5038524;28;20099;-63
2023/11/26 14:14:13;;;;;;;3.70;1.50;;;;;;;;;;5033995;28;20055;-61
2023/11/26 14:16:42;;;;;;;5.90;1.60;;;;;;;;;;5033597;28;20041;-62
2023/11/26 14:19:09;;;;;;;3.67;1.55;;;;;;;;;;5045920;28;20370;-62
2023/11/26 14:21:36;;;;;;;2.28;0.90;;;;;;;;;;5035674;28;20094;-63
2023/11/26 14:24:03;;;;;;;5.43;1.58;;;;;;;;;;5032230;28;20115;-62
2023/11/26 14:26:29;;;;;;;2.67;1.25;;;;;;;;;;5040883;28;20094;-62
2023/11/26 14:28:56;;;;;;;4.10;1.15;;;;;;;;;;5037987;28;20153;-62
2023/11/26 14:31:26;;;;;;;2.67;1.13;;;;;;;;;;5043406;28;20118;-62
2023/11/26 14:33:55;;;;;;;3.15;1.85;;;;;;;;;;5048149;28;20057;-63
2023/11/26 14:36:25;;;;;;;5.32;2.13;;;;;;;;;;5039114;28;20087;-63
2023/11/26 14:38:51;;;;;;;6.28;2.53;;;;;;;;;;5048796;28;20056;-63
2023/11/26 14:41:18;;;;;;;5.47;2.03;;;;;;;;;;5040518;28;20122;-62
2023/11/26 14:43:45;;;;;;;3.53;1.15;;;;;;;;;;5052006;28;20068;-62
2023/11/26 14:46:15;;;;;;;4.00;1.38;;;;;;;;;;5048014;28;20099;-62
2023/11/26 14:48:42;;;;;;;2.88;1.27;;;;;;;;;;5053573;28;20037;-62
2023/11/26 14:51:10;;;;;;;2.85;1.08;;;;;;;;;;5047938;28;20068;-63
2023/11/26 14:53:37;;;;;;;3.30;1.33;;;;;;;;;;5026990;28;20045;-63